GFRAS BIKF-BIRK
Flight info
| Callsign | GFRAS |
|---|---|
| Flight time | 0h 10m |
| Altitude | 1500 |
| Route | VFR ROUTE 6 |
| Aircraft | C208/L-VGD/A |
Departure
| Time | 2026-05-06 15:25 |
|---|---|
| Airport | Keflavik International Airport (BIKF) |
Arrival
| Time | 2026-05-06 15:35 |
|---|---|
| Airport | Reykjavík Domestic Airport (BIRK) |
| Time | Latitude | Longitude | Altitude | Speed | Heading |
|---|---|---|---|---|---|
| 2026-05-06 15:10 | 63.97248 | -22.59247 | 168 ft | 0 kts | 112° |
| 2026-05-06 15:21 | 63.97241 | -22.59229 | 168 ft | 5 kts | 154° |
| 2026-05-06 15:21 | 63.97227 | -22.59333 | 165 ft | 10 kts | 290° |
| 2026-05-06 15:21 | 63.97225 | -22.59508 | 162 ft | 12 kts | 283° |
| 2026-05-06 15:21 | 63.97260 | -22.59701 | 156 ft | 13 kts | 294° |
| 2026-05-06 15:22 | 63.97294 | -22.59894 | 154 ft | 12 kts | 292° |
| 2026-05-06 15:22 | 63.97326 | -22.60068 | 152 ft | 11 kts | 295° |
| 2026-05-06 15:22 | 63.97358 | -22.60226 | 149 ft | 10 kts | 294° |
| 2026-05-06 15:22 | 63.97375 | -22.60328 | 148 ft | 0 kts | 291° |
| 2026-05-06 15:23 | 63.97397 | -22.60449 | 146 ft | 15 kts | 294° |
| 2026-05-06 15:24 | 63.97512 | -22.60552 | 147 ft | 32 kts | 360° |
| 2026-05-06 15:24 | 63.97952 | -22.60552 | 157 ft | 87 kts | 360° |
| 2026-05-06 15:24 | 63.98560 | -22.60564 | 446 ft | 88 kts | 2° |
| 2026-05-06 15:24 | 63.99236 | -22.60474 | 579 ft | 103 kts | 17° |
| 2026-05-06 15:25 | 63.99773 | -22.59423 | 842 ft | 113 kts | 60° |
| 2026-05-06 15:25 | 63.99875 | -22.57420 | 834 ft | 139 kts | 97° |
| 2026-05-06 15:25 | 63.99481 | -22.55356 | 951 ft | 148 kts | 112° |
| 2026-05-06 15:25 | 63.98942 | -22.53270 | 951 ft | 158 kts | 120° |
| 2026-05-06 15:26 | 63.98229 | -22.51297 | 946 ft | 163 kts | 131° |
| 2026-05-06 15:26 | 63.97365 | -22.49533 | 886 ft | 169 kts | 137° |
| 2026-05-06 15:26 | 63.96454 | -22.47800 | 846 ft | 170 kts | 133° |
| 2026-05-06 15:26 | 63.95784 | -22.45686 | 802 ft | 164 kts | 108° |
| 2026-05-06 15:27 | 63.95616 | -22.43219 | 825 ft | 151 kts | 79° |
| 2026-05-06 15:27 | 63.95869 | -22.40934 | 793 ft | 149 kts | 66° |
| 2026-05-06 15:27 | 63.96242 | -22.38773 | 804 ft | 147 kts | 62° |
| 2026-05-06 15:27 | 63.96686 | -22.36691 | 836 ft | 144 kts | 57° |
| 2026-05-06 15:28 | 63.97217 | -22.34742 | 824 ft | 144 kts | 53° |
| 2026-05-06 15:28 | 63.97706 | -22.32765 | 848 ft | 144 kts | 56° |
| 2026-05-06 15:28 | 63.98201 | -22.30778 | 857 ft | 144 kts | 56° |
| 2026-05-06 15:28 | 63.98698 | -22.28812 | 872 ft | 143 kts | 54° |
| 2026-05-06 15:29 | 63.99227 | -22.26805 | 820 ft | 147 kts | 56° |
| 2026-05-06 15:29 | 63.99728 | -22.24759 | 820 ft | 146 kts | 57° |
| 2026-05-06 15:29 | 64.00183 | -22.22694 | 838 ft | 146 kts | 60° |
| 2026-05-06 15:29 | 64.00626 | -22.20630 | 837 ft | 146 kts | 59° |
| 2026-05-06 15:30 | 64.01066 | -22.18501 | 848 ft | 146 kts | 62° |
| 2026-05-06 15:30 | 64.01473 | -22.16396 | 848 ft | 147 kts | 62° |
| 2026-05-06 15:30 | 64.01878 | -22.14240 | 850 ft | 147 kts | 62° |
| 2026-05-06 15:30 | 64.02273 | -22.12094 | 850 ft | 147 kts | 64° |
| 2026-05-06 15:31 | 64.02652 | -22.09937 | 846 ft | 147 kts | 64° |
| 2026-05-06 15:31 | 64.03046 | -22.07781 | 852 ft | 147 kts | 62° |
| 2026-05-06 15:31 | 64.03477 | -22.05662 | 849 ft | 147 kts | 59° |
| 2026-05-06 15:32 | 64.04406 | -22.01539 | 855 ft | 146 kts | 58° |
| 2026-05-06 15:32 | 64.04896 | -21.99503 | 857 ft | 146 kts | 54° |
| 2026-05-06 15:32 | 64.05692 | -21.98229 | 744 ft | 148 kts | 11° |
| 2026-05-06 15:32 | 64.06679 | -21.97766 | 857 ft | 139 kts | 14° |
| 2026-05-06 15:33 | 64.07632 | -21.97398 | 850 ft | 142 kts | 8° |
| 2026-05-06 15:33 | 64.08579 | -21.97018 | 805 ft | 130 kts | 16° |
| 2026-05-06 15:33 | 64.09392 | -21.96381 | 781 ft | 117 kts | 24° |
| 2026-05-06 15:33 | 64.10102 | -21.95577 | 743 ft | 109 kts | 30° |
| 2026-05-06 15:34 | 64.10554 | -21.94717 | 727 ft | 74 kts | 45° |
| 2026-05-06 15:34 | 64.10935 | -21.94024 | 519 ft | 64 kts | 27° |
| 2026-05-06 15:34 | 64.11331 | -21.93699 | 312 ft | 59 kts | 16° |
| 2026-05-06 15:34 | 64.11788 | -21.93570 | 184 ft | 72 kts | 1° |
| 2026-05-06 15:35 | 64.12292 | -21.93651 | 49 ft | 74 kts | 358° |
| 2026-05-06 15:35 | 64.12766 | -21.93739 | 19 ft | 59 kts | 2° |
| 2026-05-06 15:35 | 64.13062 | -21.93773 | 30 ft | 23 kts | 356° |
| 2026-05-06 15:35 | 64.13170 | -21.93611 | 40 ft | 13 kts | 49° |
| 2026-05-06 15:36 | 64.13225 | -21.93473 | 43 ft | 10 kts | 46° |
| 2026-05-06 15:36 | 64.13243 | -21.93325 | 47 ft | 11 kts | 136° |
| 2026-05-06 15:36 | 64.13184 | -21.93410 | 44 ft | 7 kts | 200° |
| 2026-05-06 15:36 | 64.13142 | -21.93438 | 42 ft | 0 kts | 181° |